sensor_id;sensor_type;location;lat;lon;timestamp;P1;P2;P0
82821;PMS5003;72574;46.842;-71.246;2023-12-14T00:00:52;6.6;3.75;1.6
82821;PMS5003;72574;46.842;-71.246;2023-12-14T00:03:19;5.33;4.48;1
82821;PMS5003;72574;46.842;-71.246;2023-12-14T00:05:46;7.73;6.86;3
82821;PMS5003;72574;46.842;-71.246;2023-12-14T00:08:10;9.33;5.24;3
82821;PMS5003;72574;46.842;-71.246;2023-12-14T00:10:36;3.29;2.33;1
82821;PMS5003;72574;46.842;-71.246;2023-12-14T00:13:00;12.62;6.81;2.62
82821;PMS5003;72574;46.842;-71.246;2023-12-14T00:15:27;9.24;7;3.95
82821;PMS5003;72574;46.842;-71.246;2023-12-14T00:17:51;3.36;3.32;1
82821;PMS5003;72574;46.842;-71.246;2023-12-14T00:20:19;10.71;6.95;3.67
82821;PMS5003;72574;46.842;-71.246;2023-12-14T00:22:43;3.55;2.64;1.18
82821;PMS5003;72574;46.842;-71.246;2023-12-14T00:25:10;6.76;4.95;2.05
82821;PMS5003;72574;46.842;-71.246;2023-12-14T00:27:34;5.81;3.24;0.52
82821;PMS5003;72574;46.842;-71.246;2023-12-14T00:30:01;4.19;3.48;1
82821;PMS5003;72574;46.842;-71.246;2023-12-14T00:32:25;8.05;6.1;3.67
82821;PMS5003;72574;46.842;-71.246;2023-12-14T00:34:52;3.95;3;2.33
82821;PMS5003;72574;46.842;-71.246;2023-12-14T00:37:17;5.29;3;1
82821;PMS5003;72574;46.842;-71.246;2023-12-14T00:39:43;4.27;4.27;1.55
82821;PMS5003;72574;46.842;-71.246;2023-12-14T00:42:10;4.19;3;1
82821;PMS5003;72574;46.842;-71.246;2023-12-14T00:44:34;3.05;1.48;1.14
82821;PMS5003;72574;46.842;-71.246;2023-12-14T00:47:00;3.1;3.1;1.48
82821;PMS5003;72574;46.842;-71.246;2023-12-14T00:49:25;3.52;3.1;1
82821;PMS5003;72574;46.842;-71.246;2023-12-14T00:51:54;1;1;0.48
82821;PMS5003;72574;46.842;-71.246;2023-12-14T00:54:18;2.64;1.27;0.68
82821;PMS5003;72574;46.842;-71.246;2023-12-14T00:56:44;2.27;1.55;0.68
82821;PMS5003;72574;46.842;-71.246;2023-12-14T00:59:11;3.81;3.38;0.95
82821;PMS5003;72574;46.842;-71.246;2023-12-14T01:01:35;3.57;1.76;0.52
82821;PMS5003;72574;46.842;-71.246;2023-12-14T01:04:02;5.19;3;1.76
82821;PMS5003;72574;46.842;-71.246;2023-12-14T01:06:25;3.29;3;1
82821;PMS5003;72574;46.842;-71.246;2023-12-14T01:08:51;2.52;2.52;0.9
82821;PMS5003;72574;46.842;-71.246;2023-12-14T01:11:16;1.76;1.76;0.81
82821;PMS5003;72574;46.842;-71.246;2023-12-14T01:13:43;3;3;1.55
82821;PMS5003;72574;46.842;-71.246;2023-12-14T01:16:10;1.38;1.1;0
82821;PMS5003;72574;46.842;-71.246;2023-12-14T01:18:33;3.86;3.24;1.48
82821;PMS5003;72574;46.842;-71.246;2023-12-14T01:20:59;3;1.57;0.67
82821;PMS5003;72574;46.842;-71.246;2023-12-14T01:23:26;14.52;7.14;2.62
82821;PMS5003;72574;46.842;-71.246;2023-12-14T01:25:49;3;2.62;1
82821;PMS5003;72574;46.842;-71.246;2023-12-14T01:28:16;3.52;3;2.62
82821;PMS5003;72574;46.842;-71.246;2023-12-14T01:30:43;5.59;5.32;1.82
82821;PMS5003;72574;46.842;-71.246;2023-12-14T01:33:07;7.38;4;2.81
82821;PMS5003;72574;46.842;-71.246;2023-12-14T01:35:33;4.67;3.52;1
82821;PMS5003;72574;46.842;-71.246;2023-12-14T01:37:57;3.76;3.38;0.81
82821;PMS5003;72574;46.842;-71.246;2023-12-14T01:40:24;6.05;4.76;2.05
82821;PMS5003;72574;46.842;-71.246;2023-12-14T01:42:48;6.43;3.29;0.81
82821;PMS5003;72574;46.842;-71.246;2023-12-14T01:45:14;3;2.6;1
82821;PMS5003;72574;46.842;-71.246;2023-12-14T01:47:39;0.5;0.5;0
82821;PMS5003;72574;46.842;-71.246;2023-12-14T01:50:06;0.38;0.24;0
82821;PMS5003;72574;46.842;-71.246;2023-12-14T01:52:30;2.43;2;0.67
82821;PMS5003;72574;46.842;-71.246;2023-12-14T01:54:55;2.8;1.7;0.3
82821;PMS5003;72574;46.842;-71.246;2023-12-14T01:57:22;3.24;1.19;0
82821;PMS5003;72574;46.842;-71.246;2023-12-14T01:59:48;5.2;2.5;1
82821;PMS5003;72574;46.842;-71.246;2023-12-14T02:02:13;3.4;3.4;1
82821;PMS5003;72574;46.842;-71.246;2023-12-14T02:04:38;3.18;2.55;0.14
82821;PMS5003;72574;46.842;-71.246;2023-12-14T02:07:05;1;1;0.55
82821;PMS5003;72574;46.842;-71.246;2023-12-14T02:09:29;3.4;2.9;0.25
82821;PMS5003;72574;46.842;-71.246;2023-12-14T02:11:56;0.81;0.81;0.81
82821;PMS5003;72574;46.842;-71.246;2023-12-14T02:14:21;2.7;1.85;0.8
82821;PMS5003;72574;46.842;-71.246;2023-12-14T02:16:46;4.2;1.7;0.8
82821;PMS5003;72574;46.842;-71.246;2023-12-14T02:19:09;0.95;0;0
82821;PMS5003;72574;46.842;-71.246;2023-12-14T02:21:36;3;3;1.55
82821;PMS5003;72574;46.842;-71.246;2023-12-14T02:24:02;2.8;0.9;0
82821;PMS5003;72574;46.842;-71.246;2023-12-14T02:26:26;2.6;2.6;0.95
82821;PMS5003;72574;46.842;-71.246;2023-12-14T02:28:53;3.38;2.05;1
82821;PMS5003;72574;46.842;-71.246;2023-12-14T02:31:19;6.33;4.29;1.76
82821;PMS5003;72574;46.842;-71.246;2023-12-14T02:33:42;4.24;3.67;1
82821;PMS5003;72574;46.842;-71.246;2023-12-14T02:36:10;3.14;3.14;2.33
82821;PMS5003;72574;46.842;-71.246;2023-12-14T02:38:36;6.71;3.48;1
82821;PMS5003;72574;46.842;-71.246;2023-12-14T02:40:59;3.81;3.24;1.76
82821;PMS5003;72574;46.842;-71.246;2023-12-14T02:43:25;5;3.29;1
82821;PMS5003;72574;46.842;-71.246;2023-12-14T02:45:49;4.2;3.8;1
82821;PMS5003;72574;46.842;-71.246;2023-12-14T02:48:17;4;4;1.1
82821;PMS5003;72574;46.842;-71.246;2023-12-14T02:50:40;5.25;4.95;1.95
82821;PMS5003;72574;46.842;-71.246;2023-12-14T02:53:07;4.8;3;2.3
82821;PMS5003;72574;46.842;-71.246;2023-12-14T02:55:33;3.67;3.67;1.76
82821;PMS5003;72574;46.842;-71.246;2023-12-14T02:57:59;3.35;3.35;2.3
82821;PMS5003;72574;46.842;-71.246;2023-12-14T03:00:22;4.45;3.65;1.2
82821;PMS5003;72574;46.842;-71.246;2023-12-14T03:02:47;5.8;4;2.5
82821;PMS5003;72574;46.842;-71.246;2023-12-14T03:05:13;5;2;0.9
82821;PMS5003;72574;46.842;-71.246;2023-12-14T03:07:39;2.85;1;0.8
82821;PMS5003;72574;46.842;-71.246;2023-12-14T03:10:06;2;2;0.95
82821;PMS5003;72574;46.842;-71.246;2023-12-14T03:12:32;3.64;3;1
82821;PMS5003;72574;46.842;-71.246;2023-12-14T03:14:56;3.9;3;1.95
82821;PMS5003;72574;46.842;-71.246;2023-12-14T03:17:21;1;1;0.67
82821;PMS5003;72574;46.842;-71.246;2023-12-14T03:19:47;2.2;2.2;1
82821;PMS5003;72574;46.842;-71.246;2023-12-14T03:22:13;2.3;0.95;0
82821;PMS5003;72574;46.842;-71.246;2023-12-14T03:24:36;3.4;3;1
82821;PMS5003;72574;46.842;-71.246;2023-12-14T03:27:02;0.9;0.9;0.3
82821;PMS5003;72574;46.842;-71.246;2023-12-14T03:29:28;1.1;1;1
82821;PMS5003;72574;46.842;-71.246;2023-12-14T03:31:54;1.15;1.15;0.3
82821;PMS5003;72574;46.842;-71.246;2023-12-14T03:34:20;1;1;0
82821;PMS5003;72574;46.842;-71.246;2023-12-14T03:36:46;1.7;1.4;0.75
82821;PMS5003;72574;46.842;-71.246;2023-12-14T03:39:09;1.4;1.4;0.35
82821;PMS5003;72574;46.842;-71.246;2023-12-14T03:41:35;1.8;0.8;0
82821;PMS5003;72574;46.842;-71.246;2023-12-14T03:44:01;1;1;0.8
82821;PMS5003;72574;46.842;-71.246;2023-12-14T03:46:28;2.52;2.52;0
82821;PMS5003;72574;46.842;-71.246;2023-12-14T03:48:51;2.3;2.3;0.7
82821;PMS5003;72574;46.842;-71.246;2023-12-14T03:51:17;2.05;1.4;0.45
82821;PMS5003;72574;46.842;-71.246;2023-12-14T03:53:42;2.3;2.3;0.5
82821;PMS5003;72574;46.842;-71.246;2023-12-14T03:56:08;1;1;0.7
82821;PMS5003;72574;46.842;-71.246;2023-12-14T03:58:33;5.6;2.9;0.2
82821;PMS5003;72574;46.842;-71.246;2023-12-14T04:00:59;2.2;2.2;0.75
82821;PMS5003;72574;46.842;-71.246;2023-12-14T04:03:24;0.9;0.9;0.52
82821;PMS5003;72574;46.842;-71.246;2023-12-14T04:05:50;5;3.1;1.4
82821;PMS5003;72574;46.842;-71.246;2023-12-14T04:08:16;3.3;2.15;0.5
82821;PMS5003;72574;46.842;-71.246;2023-12-14T04:10:39;3.75;1.2;0.9
82821;PMS5003;72574;46.842;-71.246;2023-12-14T04:13:05;2.3;1.5;0.35
82821;PMS5003;72574;46.842;-71.246;2023-12-14T04:15:31;1.1;1.1;0.65
82821;PMS5003;72574;46.842;-71.246;2023-12-14T04:17:57;2.8;1.7;1
82821;PMS5003;72574;46.842;-71.246;2023-12-14T04:20:22;2.62;2.62;1
82821;PMS5003;72574;46.842;-71.246;2023-12-14T04:22:47;5.6;3.2;2.3
82821;PMS5003;72574;46.842;-71.246;2023-12-14T04:25:13;1;1;0.35
82821;PMS5003;72574;46.842;-71.246;2023-12-14T04:27:39;3;1.05;0.8
82821;PMS5003;72574;46.842;-71.246;2023-12-14T04:30:05;4.3;2.6;0.5
82821;PMS5003;72574;46.842;-71.246;2023-12-14T04:32:29;2.1;2.1;0.8
82821;PMS5003;72574;46.842;-71.246;2023-12-14T04:34:55;1.1;1.1;1
82821;PMS5003;72574;46.842;-71.246;2023-12-14T04:37:21;2.48;1.67;1
82821;PMS5003;72574;46.842;-71.246;2023-12-14T04:39:47;3.05;1.35;0.2
82821;PMS5003;72574;46.842;-71.246;2023-12-14T04:42:10;2.6;1;0.8
82821;PMS5003;72574;46.842;-71.246;2023-12-14T04:44:36;1.4;1.4;0
82821;PMS5003;72574;46.842;-71.246;2023-12-14T04:47:03;3.1;1;0
82821;PMS5003;72574;46.842;-71.246;2023-12-14T04:49:26;3.8;2.1;0.65
82821;PMS5003;72574;46.842;-71.246;2023-12-14T04:51:51;1;1;1
82821;PMS5003;72574;46.842;-71.246;2023-12-14T04:54:18;0.38;0.38;0
82821;PMS5003;72574;46.842;-71.246;2023-12-14T04:56:45;2.9;0.1;0
82821;PMS5003;72574;46.842;-71.246;2023-12-14T04:59:11;0.1;0;0
82821;PMS5003;72574;46.842;-71.246;2023-12-14T05:01:34;0.8;0.8;0
82821;PMS5003;72574;46.842;-71.246;2023-12-14T05:03:59;0;0;0
82821;PMS5003;72574;46.842;-71.246;2023-12-14T05:06:26;1.9;0.35;0.2
82821;PMS5003;72574;46.842;-71.246;2023-12-14T05:08:52;0.8;0.8;0
82821;PMS5003;72574;46.842;-71.246;2023-12-14T05:11:15;2.05;0.38;0
82821;PMS5003;72574;46.842;-71.246;2023-12-14T05:13:42;1;1;0
82821;PMS5003;72574;46.842;-71.246;2023-12-14T05:16:06;0.35;0.2;0
82821;PMS5003;72574;46.842;-71.246;2023-12-14T05:18:31;0.05;0.05;0
82821;PMS5003;72574;46.842;-71.246;2023-12-14T05:20:58;0.5;0;0
82821;PMS5003;72574;46.842;-71.246;2023-12-14T05:23:21;0.2;0;0
82821;PMS5003;72574;46.842;-71.246;2023-12-14T05:25:48;0;0;0
82821;PMS5003;72574;46.842;-71.246;2023-12-14T05:28:14;0.95;0.1;0
82821;PMS5003;72574;46.842;-71.246;2023-12-14T05:30:40;0.2;0.2;0
82821;PMS5003;72574;46.842;-71.246;2023-12-14T05:33:04;0.2;0.2;0
82821;PMS5003;72574;46.842;-71.246;2023-12-14T05:35:30;1.7;0;0
82821;PMS5003;72574;46.842;-71.246;2023-12-14T05:37:55;4.8;3.1;0.05
82821;PMS5003;72574;46.842;-71.246;2023-12-14T05:40:22;1;0.16;0
82821;PMS5003;72574;46.842;-71.246;2023-12-14T05:42:47;1.95;0.95;0
82821;PMS5003;72574;46.842;-71.246;2023-12-14T05:45:14;4.57;0.52;0
82821;PMS5003;72574;46.842;-71.246;2023-12-14T05:47:37;8.4;3.9;0.55
82821;PMS5003;72574;46.842;-71.246;2023-12-14T05:50:03;1.8;1.4;0.65
82821;PMS5003;72574;46.842;-71.246;2023-12-14T05:52:29;7.7;3.05;1
82821;PMS5003;72574;46.842;-71.246;2023-12-14T05:54:54;2.65;2;0.05
82821;PMS5003;72574;46.842;-71.246;2023-12-14T05:57:20;2.3;2.3;1
82821;PMS5003;72574;46.842;-71.246;2023-12-14T05:59:46;1.5;1.45;0
82821;PMS5003;72574;46.842;-71.246;2023-12-14T06:02:09;3.33;2.38;0.24
82821;PMS5003;72574;46.842;-71.246;2023-12-14T06:04:35;3.5;2;1
82821;PMS5003;72574;46.842;-71.246;2023-12-14T06:07:02;0.95;0.95;0
82821;PMS5003;72574;46.842;-71.246;2023-12-14T06:09:28;12.7;2.95;0.1
82821;PMS5003;72574;46.842;-71.246;2023-12-14T06:11:51;2.9;1;0.8
82821;PMS5003;72574;46.842;-71.246;2023-12-14T06:14:17;1.2;1.2;0.35
82821;PMS5003;72574;46.842;-71.246;2023-12-14T06:16:48;3;3;1
82821;PMS5003;72574;46.842;-71.246;2023-12-14T06:19:14;3;1;0.1
82821;PMS5003;72574;46.842;-71.246;2023-12-14T06:21:40;1;0.2;0
82821;PMS5003;72574;46.842;-71.246;2023-12-14T06:24:06;1.6;1.25;0.35
82821;PMS5003;72574;46.842;-71.246;2023-12-14T06:26:29;3.9;1.1;0.8
82821;PMS5003;72574;46.842;-71.246;2023-12-14T06:28:55;1;0;0
82821;PMS5003;72574;46.842;-71.246;2023-12-14T06:31:21;3.7;1;0.25
82821;PMS5003;72574;46.842;-71.246;2023-12-14T06:33:47;0.52;0.24;0
82821;PMS5003;72574;46.842;-71.246;2023-12-14T06:36:15;0;0;0
82821;PMS5003;72574;46.842;-71.246;2023-12-14T06:38:37;2;1.65;0.8
82821;PMS5003;72574;46.842;-71.246;2023-12-14T06:41:01;0.9;0.35;0
82821;PMS5003;72574;46.842;-71.246;2023-12-14T06:43:28;0.95;0;0
82821;PMS5003;72574;46.842;-71.246;2023-12-14T06:45:53;0.45;0.2;0
82821;PMS5003;72574;46.842;-71.246;2023-12-14T06:48:17;0.8;0.8;0
82821;PMS5003;72574;46.842;-71.246;2023-12-14T06:50:43;0.38;0.1;0
82821;PMS5003;72574;46.842;-71.246;2023-12-14T06:53:09;1;0.05;0
82821;PMS5003;72574;46.842;-71.246;2023-12-14T06:55:35;0.65;0;0
82821;PMS5003;72574;46.842;-71.246;2023-12-14T06:58:01;1.95;0;0
82821;PMS5003;72574;46.842;-71.246;2023-12-14T07:00:26;0.05;0.05;0
82821;PMS5003;72574;46.842;-71.246;2023-12-14T07:02:52;0.2;0.2;0
82821;PMS5003;72574;46.842;-71.246;2023-12-14T07:05:18;1;1;0
82821;PMS5003;72574;46.842;-71.246;2023-12-14T07:07:43;0.52;0.52;0
82821;PMS5003;72574;46.842;-71.246;2023-12-14T07:10:09;0.35;0.35;0
82821;PMS5003;72574;46.842;-71.246;2023-12-14T07:12:36;0.95;0.95;0.5
82821;PMS5003;72574;46.842;-71.246;2023-12-14T07:14:59;6.5;1.25;1.15
82821;PMS5003;72574;46.842;-71.246;2023-12-14T07:17:26;0;0;0
82821;PMS5003;72574;46.842;-71.246;2023-12-14T07:19:51;0;0;0
82821;PMS5003;72574;46.842;-71.246;2023-12-14T07:22:17;0.6;0.2;0
82821;PMS5003;72574;46.842;-71.246;2023-12-14T07:24:43;0;0;0
82821;PMS5003;72574;46.842;-71.246;2023-12-14T07:27:09;0.95;0.95;0
82821;PMS5003;72574;46.842;-71.246;2023-12-14T07:29:33;0;0;0
82821;PMS5003;72574;46.842;-71.246;2023-12-14T07:31:59;0;0;0
82821;PMS5003;72574;46.842;-71.246;2023-12-14T07:34:24;0;0;0
82821;PMS5003;72574;46.842;-71.246;2023-12-14T07:36:49;0.95;0;0
82821;PMS5003;72574;46.842;-71.246;2023-12-14T07:39:15;0.05;0.05;0
82821;PMS5003;72574;46.842;-71.246;2023-12-14T07:41:41;0.76;0.67;0
82821;PMS5003;72574;46.842;-71.246;2023-12-14T07:44:04;0.2;0.2;0
82821;PMS5003;72574;46.842;-71.246;2023-12-14T07:46:31;0.8;0;0
82821;PMS5003;72574;46.842;-71.246;2023-12-14T07:48:57;0;0;0
82821;PMS5003;72574;46.842;-71.246;2023-12-14T07:51:22;0.05;0;0
82821;PMS5003;72574;46.842;-71.246;2023-12-14T07:53:47;0;0;0
82821;PMS5003;72574;46.842;-71.246;2023-12-14T07:56:13;0.75;0.05;0
82821;PMS5003;72574;46.842;-71.246;2023-12-14T07:58:39;2.43;0;0
82821;PMS5003;72574;46.842;-71.246;2023-12-14T08:01:05;0.65;0;0
82821;PMS5003;72574;46.842;-71.246;2023-12-14T08:03:31;0.05;0.05;0
82821;PMS5003;72574;46.842;-71.246;2023-12-14T08:05:56;0;0;0
82821;PMS5003;72574;46.842;-71.246;2023-12-14T08:08:20;0;0;0
82821;PMS5003;72574;46.842;-71.246;2023-12-14T08:10:44;0;0;0
82821;PMS5003;72574;46.842;-71.246;2023-12-14T08:13:10;0;0;0
82821;PMS5003;72574;46.842;-71.246;2023-12-14T08:15:36;0;0;0
82821;PMS5003;72574;46.842;-71.246;2023-12-14T08:18:01;0;0;0
82821;PMS5003;72574;46.842;-71.246;2023-12-14T08:20:27;0.5;0.5;0
82821;PMS5003;72574;46.842;-71.246;2023-12-14T08:22:52;0.9;0;0
82821;PMS5003;72574;46.842;-71.246;2023-12-14T08:25:17;0.8;0;0
82821;PMS5003;72574;46.842;-71.246;2023-12-14T08:27:43;0;0;0
82821;PMS5003;72574;46.842;-71.246;2023-12-14T08:30:10;0.05;0.05;0
82821;PMS5003;72574;46.842;-71.246;2023-12-14T08:32:35;0.1;0;0
82821;PMS5003;72574;46.842;-71.246;2023-12-14T08:35:01;3.2;3.1;1.1
82821;PMS5003;72574;46.842;-71.246;2023-12-14T08:37:27;4.65;4.15;2.9
82821;PMS5003;72574;46.842;-71.246;2023-12-14T08:39:50;9.84;6.05;3.37
82821;PMS5003;72574;46.842;-71.246;2023-12-14T08:42:17;20;12.3;5.3
82821;PMS5003;72574;46.842;-71.246;2023-12-14T08:44:40;13.29;12.52;5.05
82821;PMS5003;72574;46.842;-71.246;2023-12-14T08:47:06;8.58;6.21;4.42
82821;PMS5003;72574;46.842;-71.246;2023-12-14T08:49:32;9.81;7.95;3.38
82821;PMS5003;72574;46.842;-71.246;2023-12-14T08:51:58;7.4;5.6;2.3
82821;PMS5003;72574;46.842;-71.246;2023-12-14T08:54:22;6.2;3.2;1
82821;PMS5003;72574;46.842;-71.246;2023-12-14T08:56:49;3;3;0.95
82821;PMS5003;72574;46.842;-71.246;2023-12-14T08:59:15;2.53;1.42;0.79
82821;PMS5003;72574;46.842;-71.246;2023-12-14T09:15:14;2.26;1.21;1
82821;PMS5003;72574;46.842;-71.246;2023-12-14T09:15:40;3;1;0.67
82821;PMS5003;72574;46.842;-71.246;2023-12-14T09:16:02;5.1;2.3;0.5
82821;PMS5003;72574;46.842;-71.246;2023-12-14T09:16:24;0.67;0.67;0.1
82821;PMS5003;72574;46.842;-71.246;2023-12-14T09:16:46;2.3;1;0.9
82821;PMS5003;72574;46.842;-71.246;2023-12-14T09:17:03;1.7;1.7;0.1
82821;PMS5003;72574;46.842;-71.246;2023-12-14T09:18:10;2.55;2;0.1
82821;PMS5003;72574;46.842;-71.246;2023-12-14T09:20:36;3.65;1;0.8
82821;PMS5003;72574;46.842;-71.246;2023-12-14T09:23:03;2.76;2.57;1
82821;PMS5003;72574;46.842;-71.246;2023-12-14T09:25:29;3.05;2;0.95
82821;PMS5003;72574;46.842;-71.246;2023-12-14T09:27:54;2.9;2.9;1
82821;PMS5003;72574;46.842;-71.246;2023-12-14T09:30:20;3.85;3.4;1
82821;PMS5003;72574;46.842;-71.246;2023-12-14T09:32:44;1;1;0
82821;PMS5003;72574;46.842;-71.246;2023-12-14T09:35:11;2.6;1.5;0.5
82821;PMS5003;72574;46.842;-71.246;2023-12-14T09:37:34;0.8;0.05;0
82821;PMS5003;72574;46.842;-71.246;2023-12-14T09:40:02;0.1;0.1;0
82821;PMS5003;72574;46.842;-71.246;2023-12-14T09:42:26;0.8;0;0
82821;PMS5003;72574;46.842;-71.246;2023-12-14T09:44:50;0.25;0.25;0
82821;PMS5003;72574;46.842;-71.246;2023-12-14T09:47:18;0.5;0.5;0
82821;PMS5003;72574;46.842;-71.246;2023-12-14T09:49:44;0.8;0.8;0.4
82821;PMS5003;72574;46.842;-71.246;2023-12-14T09:52:08;1;1;0.5
82821;PMS5003;72574;46.842;-71.246;2023-12-14T09:54:31;0;0;0
82821;PMS5003;72574;46.842;-71.246;2023-12-14T09:56:58;3.1;1.48;0
82821;PMS5003;72574;46.842;-71.246;2023-12-14T09:59:23;0.65;0.65;0
82821;PMS5003;72574;46.842;-71.246;2023-12-14T10:01:52;0;0;0
82821;PMS5003;72574;46.842;-71.246;2023-12-14T10:04:17;2.7;0.8;0
82821;PMS5003;72574;46.842;-71.246;2023-12-14T10:06:41;0.6;0.6;0
82821;PMS5003;72574;46.842;-71.246;2023-12-14T10:09:05;1;1;0.05
82821;PMS5003;72574;46.842;-71.246;2023-12-14T10:11:31;3.15;1;0.9
82821;PMS5003;72574;46.842;-71.246;2023-12-14T10:13:57;0.52;0.52;0
82821;PMS5003;72574;46.842;-71.246;2023-12-14T10:16:26;0.9;0.05;0
82821;PMS5003;72574;46.842;-71.246;2023-12-14T10:18:50;1.2;1;0
82821;PMS5003;72574;46.842;-71.246;2023-12-14T10:21:14;1;1;0
82821;PMS5003;72574;46.842;-71.246;2023-12-14T10:23:39;3.4;1.7;0.65
82821;PMS5003;72574;46.842;-71.246;2023-12-14T10:26:04;2.84;2.79;0.47
82821;PMS5003;72574;46.842;-71.246;2023-12-14T10:28:29;3.89;1.63;1
82821;PMS5003;72574;46.842;-71.246;2023-12-14T10:30:54;1.15;1.15;0.1
82821;PMS5003;72574;46.842;-71.246;2023-12-14T10:33:21;5.26;4.32;1.42
82821;PMS5003;72574;46.842;-71.246;2023-12-14T10:35:45;6.11;5.26;3.05
82821;PMS5003;72574;46.842;-71.246;2023-12-14T10:38:10;4.32;3.95;1.74
82821;PMS5003;72574;46.842;-71.246;2023-12-14T10:40:37;5.05;3.26;1
82821;PMS5003;72574;46.842;-71.246;2023-12-14T10:43:02;4.32;3.37;2.47
82821;PMS5003;72574;46.842;-71.246;2023-12-14T10:45:29;3.84;1.53;0.95
82821;PMS5003;72574;46.842;-71.246;2023-12-14T10:47:54;3;3;1
82821;PMS5003;72574;46.842;-71.246;2023-12-14T10:50:19;3.89;1.21;1
82821;PMS5003;72574;46.842;-71.246;2023-12-14T10:52:44;0.6;0.05;0
82821;PMS5003;72574;46.842;-71.246;2023-12-14T10:55:11;3.16;2.05;0.63
82821;PMS5003;72574;46.842;-71.246;2023-12-14T10:57:35;3.84;3.05;0.63
82821;PMS5003;72574;46.842;-71.246;2023-12-14T10:59:59;3.74;1.74;0.21
82821;PMS5003;72574;46.842;-71.246;2023-12-14T11:02:26;5.63;3.63;2.95
82821;PMS5003;72574;46.842;-71.246;2023-12-14T11:04:54;5.33;4.76;2.33
82821;PMS5003;72574;46.842;-71.246;2023-12-14T11:07:17;3.11;3.11;1
82821;PMS5003;72574;46.842;-71.246;2023-12-14T11:09:43;6.6;4.65;1.4
82821;PMS5003;72574;46.842;-71.246;2023-12-14T11:12:07;6.75;5.6;3.05
82821;PMS5003;72574;46.842;-71.246;2023-12-14T11:14:32;7.2;6.35;3.4
82821;PMS5003;72574;46.842;-71.246;2023-12-14T11:17:03;7.68;5.79;3.37
82821;PMS5003;72574;46.842;-71.246;2023-12-14T11:19:25;9.37;4.42;2.26
82821;PMS5003;72574;46.842;-71.246;2023-12-14T11:21:49;4.4;4.2;3
82821;PMS5003;72574;46.842;-71.246;2023-12-14T11:24:16;7.89;4.95;3.47
82821;PMS5003;72574;46.842;-71.246;2023-12-14T11:26:39;9.47;7;4
82821;PMS5003;72574;46.842;-71.246;2023-12-14T11:29:07;12.35;9.6;5
82821;PMS5003;72574;46.842;-71.246;2023-12-14T11:31:30;11.32;8.89;5.58
82821;PMS5003;72574;46.842;-71.246;2023-12-14T11:33:58;8.05;6.95;3.68
82821;PMS5003;72574;46.842;-71.246;2023-12-14T11:36:23;13.68;12.53;6.05
82821;PMS5003;72574;46.842;-71.246;2023-12-14T11:38:48;21.71;18.81;9
82821;PMS5003;72574;46.842;-71.246;2023-12-14T11:41:13;15.16;12.68;6.79
82821;PMS5003;72574;46.842;-71.246;2023-12-14T11:43:39;15.6;15.05;6.65
82821;PMS5003;72574;46.842;-71.246;2023-12-14T11:46:03;13.35;12.85;6.05
82821;PMS5003;72574;46.842;-71.246;2023-12-14T11:48:29;6.65;6.1;3.35
82821;PMS5003;72574;46.842;-71.246;2023-12-14T11:50:55;10.65;7.95;3.65
82821;PMS5003;72574;46.842;-71.246;2023-12-14T11:53:20;6.05;4.7;2.8
82821;PMS5003;72574;46.842;-71.246;2023-12-14T11:55:46;9.85;8.05;3.65
82821;PMS5003;72574;46.842;-71.246;2023-12-14T11:58:12;10.5;9.8;5.1
82821;PMS5003;72574;46.842;-71.246;2023-12-14T12:00:35;16.21;12;4.95
82821;PMS5003;72574;46.842;-71.246;2023-12-14T12:03:10;11;9.63;5.26
82821;PMS5003;72574;46.842;-71.246;2023-12-14T12:05:34;5.37;4.21;3
82821;PMS5003;72574;46.842;-71.246;2023-12-14T12:07:56;3;1;0.16
82821;PMS5003;72574;46.842;-71.246;2023-12-14T12:10:19;5.79;2.79;0.89
82821;PMS5003;72574;46.842;-71.246;2023-12-14T12:12:45;0.2;0;0
82821;PMS5003;72574;46.842;-71.246;2023-12-14T12:15:09;2.58;0.79;0
82821;PMS5003;72574;46.842;-71.246;2023-12-14T12:17:35;0.89;0.89;0.37
82821;PMS5003;72574;46.842;-71.246;2023-12-14T12:19:59;2.32;1.58;0
82821;PMS5003;72574;46.842;-71.246;2023-12-14T12:22:25;2.95;2.58;0.47
82821;PMS5003;72574;46.842;-71.246;2023-12-14T12:24:50;1.79;1.79;0.53
82821;PMS5003;72574;46.842;-71.246;2023-12-14T12:27:16;1.37;1.37;0.63
82821;PMS5003;72574;46.842;-71.246;2023-12-14T12:29:43;2.7;2.7;1
82821;PMS5003;72574;46.842;-71.246;2023-12-14T12:32:06;3.11;2.89;1
82821;PMS5003;72574;46.842;-71.246;2023-12-14T12:34:33;1.89;1.63;0.89
82821;PMS5003;72574;46.842;-71.246;2023-12-14T12:36:57;1.42;0.47;0
82821;PMS5003;72574;46.842;-71.246;2023-12-14T12:39:23;1.21;1.21;0.63
82821;PMS5003;72574;46.842;-71.246;2023-12-14T12:41:49;3.53;3.11;1
82821;PMS5003;72574;46.842;-71.246;2023-12-14T12:44:15;4.11;3.11;2.26
82821;PMS5003;72574;46.842;-71.246;2023-12-14T12:46:40;4.1;3.75;1.2
82821;PMS5003;72574;46.842;-71.246;2023-12-14T12:49:06;2.32;1.74;0.79
82821;PMS5003;72574;46.842;-71.246;2023-12-14T12:51:32;3.89;3.26;0.95
82821;PMS5003;72574;46.842;-71.246;2023-12-14T12:53:55;4.58;3.16;1
82821;PMS5003;72574;46.842;-71.246;2023-12-14T12:56:23;4.95;3;1.21
82821;PMS5003;72574;46.842;-71.246;2023-12-14T12:58:46;2.7;1.55;1.05
82821;PMS5003;72574;46.842;-71.246;2023-12-14T13:01:11;1.2;1.2;0
82821;PMS5003;72574;46.842;-71.246;2023-12-14T13:03:38;1.38;1;0.19
82821;PMS5003;72574;46.842;-71.246;2023-12-14T13:06:03;2.8;1;0.45
82821;PMS5003;72574;46.842;-71.246;2023-12-14T13:08:29;2.6;2.6;2
82821;PMS5003;72574;46.842;-71.246;2023-12-14T13:10:54;13.79;10;6.47
82821;PMS5003;72574;46.842;-71.246;2023-12-14T13:13:20;5;3.35;2.3
82821;PMS5003;72574;46.842;-71.246;2023-12-14T13:15:45;4.05;3.35;2.6
82821;PMS5003;72574;46.842;-71.246;2023-12-14T13:18:18;4.19;4.1;3.05
82821;PMS5003;72574;46.842;-71.246;2023-12-14T13:20:41;6.76;5.95;3
82821;PMS5003;72574;46.842;-71.246;2023-12-14T13:23:07;5.8;4.3;1.4
82821;PMS5003;72574;46.842;-71.246;2023-12-14T13:25:33;3.9;3;1
82821;PMS5003;72574;46.842;-71.246;2023-12-14T13:27:59;5.85;5.85;2.5
82821;PMS5003;72574;46.842;-71.246;2023-12-14T13:30:24;9.35;6.35;3
82821;PMS5003;72574;46.842;-71.246;2023-12-14T13:32:47;10.35;6.3;3.65
82821;PMS5003;72574;46.842;-71.246;2023-12-14T13:35:17;12.27;7.36;3.82
82821;PMS5003;72574;46.842;-71.246;2023-12-14T13:37:39;10.57;8.1;3.52
82821;PMS5003;72574;46.842;-71.246;2023-12-14T13:40:06;17.95;11.65;6.65
82821;PMS5003;72574;46.842;-71.246;2023-12-14T13:42:32;10.95;9.38;6.05
82821;PMS5003;72574;46.842;-71.246;2023-12-14T13:44:56;9.25;7.7;4
82821;PMS5003;72574;46.842;-71.246;2023-12-14T13:47:22;9.2;8.6;3.8
82821;PMS5003;72574;46.842;-71.246;2023-12-14T13:49:48;5.5;3.9;2.9
82821;PMS5003;72574;46.842;-71.246;2023-12-14T13:52:14;11.48;8.95;3.81
82821;PMS5003;72574;46.842;-71.246;2023-12-14T13:54:40;8.1;6.75;3
82821;PMS5003;72574;46.842;-71.246;2023-12-14T13:57:04;6.9;5.1;3
82821;PMS5003;72574;46.842;-71.246;2023-12-14T13:59:29;6.5;6.05;3.95
82821;PMS5003;72574;46.842;-71.246;2023-12-14T14:01:56;5.24;4;3
82821;PMS5003;72574;46.842;-71.246;2023-12-14T14:04:19;4.95;3.8;2.4
82821;PMS5003;72574;46.842;-71.246;2023-12-14T14:06:47;8.33;6.29;4.14
82821;PMS5003;72574;46.842;-71.246;2023-12-14T14:09:13;3.24;3.24;1.57
82821;PMS5003;72574;46.842;-71.246;2023-12-14T14:11:36;2.9;2.9;1.2
82821;PMS5003;72574;46.842;-71.246;2023-12-14T14:14:02;4.2;3.8;2.9
82821;PMS5003;72574;46.842;-71.246;2023-12-14T14:16:28;5.38;5.38;3.57
82821;PMS5003;72574;46.842;-71.246;2023-12-14T14:18:53;4.55;3.1;1
82821;PMS5003;72574;46.842;-71.246;2023-12-14T14:21:19;7.15;4.9;3
82821;PMS5003;72574;46.842;-71.246;2023-12-14T14:23:44;4.8;3.8;1.8
82821;PMS5003;72574;46.842;-71.246;2023-12-14T14:26:09;1.76;1.38;1
82821;PMS5003;72574;46.842;-71.246;2023-12-14T14:28:36;4.5;3.45;2.1
82821;PMS5003;72574;46.842;-71.246;2023-12-14T14:31:01;3.1;1;0.8